sensor_id;sensor_type;location;lat;lon;timestamp;P1;durP1;ratioP1;P2;durP2;ratioP2
23496;SDS011;11925;48.122;11.560;2023-07-31T00:00:51;12.63;;;6.38;;
23496;SDS011;11925;48.122;11.560;2023-07-31T00:03:21;8.57;;;5.18;;
23496;SDS011;11925;48.122;11.560;2023-07-31T00:05:50;6.65;;;3.90;;
23496;SDS011;11925;48.122;11.560;2023-07-31T00:08:18;6.82;;;3.53;;
23496;SDS011;11925;48.122;11.560;2023-07-31T00:10:47;5.57;;;3.13;;
23496;SDS011;11925;48.122;11.560;2023-07-31T00:13:18;4.50;;;2.72;;
23496;SDS011;11925;48.122;11.560;2023-07-31T00:15:47;6.20;;;2.28;;
23496;SDS011;11925;48.122;11.560;2023-07-31T00:18:15;5.05;;;2.03;;
23496;SDS011;11925;48.122;11.560;2023-07-31T00:20:45;6.22;;;2.10;;
23496;SDS011;11925;48.122;11.560;2023-07-31T00:23:14;6.07;;;2.05;;
23496;SDS011;11925;48.122;11.560;2023-07-31T00:25:42;4.35;;;1.92;;
23496;SDS011;11925;48.122;11.560;2023-07-31T00:28:11;4.35;;;2.05;;
23496;SDS011;11925;48.122;11.560;2023-07-31T00:30:40;3.63;;;1.73;;
23496;SDS011;11925;48.122;11.560;2023-07-31T00:33:08;4.60;;;2.08;;
23496;SDS011;11925;48.122;11.560;2023-07-31T00:35:37;5.20;;;1.83;;
23496;SDS011;11925;48.122;11.560;2023-07-31T00:38:07;4.53;;;1.92;;
23496;SDS011;11925;48.122;11.560;2023-07-31T00:40:35;6.10;;;1.95;;
23496;SDS011;11925;48.122;11.560;2023-07-31T00:43:04;3.53;;;1.77;;
23496;SDS011;11925;48.122;11.560;2023-07-31T00:45:34;6.28;;;1.73;;
23496;SDS011;11925;48.122;11.560;2023-07-31T00:48:02;4.40;;;2.00;;
23496;SDS011;11925;48.122;11.560;2023-07-31T00:50:33;6.57;;;1.90;;
23496;SDS011;11925;48.122;11.560;2023-07-31T00:53:03;6.28;;;2.08;;
23496;SDS011;11925;48.122;11.560;2023-07-31T00:55:34;4.55;;;2.13;;
23496;SDS011;11925;48.122;11.560;2023-07-31T00:58:02;4.68;;;1.90;;
23496;SDS011;11925;48.122;11.560;2023-07-31T01:00:31;5.43;;;1.70;;
23496;SDS011;11925;48.122;11.560;2023-07-31T01:02:59;3.63;;;1.80;;
23496;SDS011;11925;48.122;11.560;2023-07-31T01:05:31;3.55;;;1.50;;
23496;SDS011;11925;48.122;11.560;2023-07-31T01:08:09;3.33;;;1.73;;
23496;SDS011;11925;48.122;11.560;2023-07-31T01:10:48;3.30;;;1.80;;
23496;SDS011;11925;48.122;11.560;2023-07-31T01:13:22;3.08;;;1.83;;
23496;SDS011;11925;48.122;11.560;2023-07-31T01:15:51;6.10;;;2.03;;
23496;SDS011;11925;48.122;11.560;2023-07-31T01:18:20;3.47;;;1.90;;
23496;SDS011;11925;48.122;11.560;2023-07-31T01:20:51;4.80;;;1.90;;
23496;SDS011;11925;48.122;11.560;2023-07-31T01:23:37;3.67;;;1.63;;
23496;SDS011;11925;48.122;11.560;2023-07-31T01:26:26;3.28;;;1.90;;
23496;SDS011;11925;48.122;11.560;2023-07-31T01:29:00;4.15;;;1.88;;
23496;SDS011;11925;48.122;11.560;2023-07-31T01:31:34;4.50;;;2.15;;
23496;SDS011;11925;48.122;11.560;2023-07-31T01:34:04;3.10;;;1.80;;
23496;SDS011;11925;48.122;11.560;2023-07-31T01:36:36;5.78;;;2.00;;
23496;SDS011;11925;48.122;11.560;2023-07-31T01:39:05;3.67;;;1.60;;
23496;SDS011;11925;48.122;11.560;2023-07-31T01:41:35;3.35;;;1.77;;
23496;SDS011;11925;48.122;11.560;2023-07-31T01:44:04;3.25;;;1.48;;
23496;SDS011;11925;48.122;11.560;2023-07-31T01:46:33;3.25;;;1.65;;
23496;SDS011;11925;48.122;11.560;2023-07-31T01:49:02;3.78;;;1.63;;
23496;SDS011;11925;48.122;11.560;2023-07-31T01:51:32;6.40;;;1.70;;
23496;SDS011;11925;48.122;11.560;2023-07-31T01:54:01;4.95;;;1.92;;
23496;SDS011;11925;48.122;11.560;2023-07-31T01:56:30;3.45;;;1.70;;
23496;SDS011;11925;48.122;11.560;2023-07-31T01:59:00;4.75;;;1.58;;
23496;SDS011;11925;48.122;11.560;2023-07-31T02:01:29;2.70;;;1.63;;
23496;SDS011;11925;48.122;11.560;2023-07-31T02:03:58;3.35;;;1.80;;
23496;SDS011;11925;48.122;11.560;2023-07-31T02:06:26;4.43;;;1.75;;
23496;SDS011;11925;48.122;11.560;2023-07-31T02:08:55;4.07;;;1.50;;
23496;SDS011;11925;48.122;11.560;2023-07-31T02:11:23;3.03;;;1.70;;
23496;SDS011;11925;48.122;11.560;2023-07-31T02:13:52;4.22;;;1.70;;
23496;SDS011;11925;48.122;11.560;2023-07-31T02:16:22;3.70;;;1.80;;
23496;SDS011;11925;48.122;11.560;2023-07-31T02:18:51;3.42;;;1.73;;
23496;SDS011;11925;48.122;11.560;2023-07-31T02:21:19;3.35;;;1.90;;
23496;SDS011;11925;48.122;11.560;2023-07-31T02:23:47;4.13;;;1.90;;
23496;SDS011;11925;48.122;11.560;2023-07-31T02:26:15;4.45;;;1.80;;
23496;SDS011;11925;48.122;11.560;2023-07-31T02:28:44;4.88;;;2.40;;
23496;SDS011;11925;48.122;11.560;2023-07-31T02:31:12;7.07;;;1.50;;
23496;SDS011;11925;48.122;11.560;2023-07-31T02:33:42;4.82;;;1.77;;
23496;SDS011;11925;48.122;11.560;2023-07-31T02:36:11;2.92;;;1.65;;
23496;SDS011;11925;48.122;11.560;2023-07-31T02:38:39;6.03;;;1.90;;
23496;SDS011;11925;48.122;11.560;2023-07-31T02:41:08;3.38;;;1.75;;
23496;SDS011;11925;48.122;11.560;2023-07-31T02:43:36;7.50;;;1.90;;
23496;SDS011;11925;48.122;11.560;2023-07-31T02:46:05;3.45;;;1.90;;
23496;SDS011;11925;48.122;11.560;2023-07-31T02:48:34;3.67;;;1.70;;
23496;SDS011;11925;48.122;11.560;2023-07-31T02:51:03;2.70;;;1.67;;
23496;SDS011;11925;48.122;11.560;2023-07-31T02:53:32;3.53;;;2.08;;
23496;SDS011;11925;48.122;11.560;2023-07-31T02:56:01;4.28;;;1.90;;
23496;SDS011;11925;48.122;11.560;2023-07-31T02:58:30;4.85;;;2.08;;
23496;SDS011;11925;48.122;11.560;2023-07-31T03:00:58;2.80;;;1.73;;
23496;SDS011;11925;48.122;11.560;2023-07-31T03:03:27;3.35;;;1.80;;
23496;SDS011;11925;48.122;11.560;2023-07-31T03:05:55;2.92;;;1.75;;
23496;SDS011;11925;48.122;11.560;2023-07-31T03:08:26;4.88;;;1.88;;
23496;SDS011;11925;48.122;11.560;2023-07-31T03:10:56;3.53;;;1.90;;
23496;SDS011;11925;48.122;11.560;2023-07-31T03:13:24;3.67;;;1.75;;
23496;SDS011;11925;48.122;11.560;2023-07-31T03:15:53;2.10;;;1.55;;
23496;SDS011;11925;48.122;11.560;2023-07-31T03:18:21;4.40;;;1.92;;
23496;SDS011;11925;48.122;11.560;2023-07-31T03:20:51;3.17;;;1.60;;
23496;SDS011;11925;48.122;11.560;2023-07-31T03:23:19;6.68;;;2.00;;
23496;SDS011;11925;48.122;11.560;2023-07-31T03:25:57;4.00;;;1.73;;
23496;SDS011;11925;48.122;11.560;2023-07-31T03:28:29;3.88;;;1.92;;
23496;SDS011;11925;48.122;11.560;2023-07-31T03:30:58;3.05;;;1.90;;
23496;SDS011;11925;48.122;11.560;2023-07-31T03:33:27;3.70;;;1.85;;
23496;SDS011;11925;48.122;11.560;2023-07-31T03:35:55;3.33;;;1.65;;
23496;SDS011;11925;48.122;11.560;2023-07-31T03:38:24;3.88;;;1.90;;
23496;SDS011;11925;48.122;11.560;2023-07-31T03:40:53;3.60;;;1.92;;
23496;SDS011;11925;48.122;11.560;2023-07-31T03:43:23;5.00;;;2.22;;
23496;SDS011;11925;48.122;11.560;2023-07-31T03:45:51;2.95;;;1.70;;
23496;SDS011;11925;48.122;11.560;2023-07-31T03:48:24;4.28;;;1.63;;
23496;SDS011;11925;48.122;11.560;2023-07-31T03:50:53;3.55;;;2.33;;
23496;SDS011;11925;48.122;11.560;2023-07-31T03:53:22;3.35;;;1.98;;
23496;SDS011;11925;48.122;11.560;2023-07-31T03:55:51;4.45;;;2.13;;
23496;SDS011;11925;48.122;11.560;2023-07-31T03:58:19;4.13;;;2.13;;
23496;SDS011;11925;48.122;11.560;2023-07-31T04:00:49;5.13;;;2.00;;
23496;SDS011;11925;48.122;11.560;2023-07-31T04:03:18;5.80;;;2.25;;
23496;SDS011;11925;48.122;11.560;2023-07-31T04:05:46;3.72;;;2.00;;
23496;SDS011;11925;48.122;11.560;2023-07-31T04:08:15;4.07;;;2.00;;
23496;SDS011;11925;48.122;11.560;2023-07-31T04:10:43;3.15;;;2.08;;
23496;SDS011;11925;48.122;11.560;2023-07-31T04:13:12;5.35;;;2.20;;
23496;SDS011;11925;48.122;11.560;2023-07-31T04:15:41;3.22;;;1.90;;
23496;SDS011;11925;48.122;11.560;2023-07-31T04:18:11;4.13;;;2.00;;
23496;SDS011;11925;48.122;11.560;2023-07-31T04:20:39;3.42;;;2.15;;
23496;SDS011;11925;48.122;11.560;2023-07-31T04:23:08;4.68;;;2.10;;
23496;SDS011;11925;48.122;11.560;2023-07-31T04:25:36;4.13;;;1.95;;
23496;SDS011;11925;48.122;11.560;2023-07-31T04:28:05;4.70;;;2.13;;
23496;SDS011;11925;48.122;11.560;2023-07-31T04:30:34;3.88;;;2.20;;
23496;SDS011;11925;48.122;11.560;2023-07-31T04:33:03;5.25;;;2.50;;
23496;SDS011;11925;48.122;11.560;2023-07-31T04:35:33;4.30;;;1.83;;
23496;SDS011;11925;48.122;11.560;2023-07-31T04:38:01;6.45;;;2.00;;
23496;SDS011;11925;48.122;11.560;2023-07-31T04:40:30;4.55;;;2.13;;
23496;SDS011;11925;48.122;11.560;2023-07-31T04:42:58;4.47;;;2.25;;
23496;SDS011;11925;48.122;11.560;2023-07-31T04:45:27;4.82;;;1.75;;
23496;SDS011;11925;48.122;11.560;2023-07-31T04:47:56;4.50;;;2.35;;
23496;SDS011;11925;48.122;11.560;2023-07-31T04:50:25;3.53;;;2.40;;
23496;SDS011;11925;48.122;11.560;2023-07-31T04:52:55;4.22;;;2.00;;
23496;SDS011;11925;48.122;11.560;2023-07-31T04:55:23;3.47;;;1.90;;
23496;SDS011;11925;48.122;11.560;2023-07-31T04:57:52;5.15;;;2.10;;
23496;SDS011;11925;48.122;11.560;2023-07-31T05:00:20;3.28;;;2.38;;
23496;SDS011;11925;48.122;11.560;2023-07-31T05:02:49;4.97;;;2.08;;
23496;SDS011;11925;48.122;11.560;2023-07-31T05:05:17;3.40;;;2.03;;
23496;SDS011;11925;48.122;11.560;2023-07-31T05:07:46;4.22;;;2.30;;
23496;SDS011;11925;48.122;11.560;2023-07-31T05:10:16;4.68;;;2.13;;
23496;SDS011;11925;48.122;11.560;2023-07-31T05:12:44;3.28;;;2.13;;
23496;SDS011;11925;48.122;11.560;2023-07-31T05:15:13;4.70;;;2.03;;
23496;SDS011;11925;48.122;11.560;2023-07-31T05:17:42;4.13;;;2.30;;
23496;SDS011;11925;48.122;11.560;2023-07-31T05:20:11;4.07;;;2.47;;
23496;SDS011;11925;48.122;11.560;2023-07-31T05:22:40;5.55;;;2.50;;
23496;SDS011;11925;48.122;11.560;2023-07-31T05:25:08;3.42;;;2.28;;
23496;SDS011;11925;48.122;11.560;2023-07-31T05:27:38;4.13;;;2.30;;
23496;SDS011;11925;48.122;11.560;2023-07-31T05:30:07;3.42;;;2.15;;
23496;SDS011;11925;48.122;11.560;2023-07-31T05:32:36;3.47;;;2.13;;
23496;SDS011;11925;48.122;11.560;2023-07-31T05:35:05;5.93;;;2.58;;
23496;SDS011;11925;48.122;11.560;2023-07-31T05:37:34;5.68;;;2.53;;
23496;SDS011;11925;48.122;11.560;2023-07-31T05:40:03;6.85;;;2.38;;
23496;SDS011;11925;48.122;11.560;2023-07-31T05:42:32;6.38;;;2.55;;
23496;SDS011;11925;48.122;11.560;2023-07-31T05:45:03;4.60;;;2.42;;
23496;SDS011;11925;48.122;11.560;2023-07-31T05:47:33;4.57;;;2.58;;
23496;SDS011;11925;48.122;11.560;2023-07-31T05:50:02;5.25;;;2.47;;
23496;SDS011;11925;48.122;11.560;2023-07-31T05:52:30;6.20;;;3.20;;
23496;SDS011;11925;48.122;11.560;2023-07-31T05:54:59;5.88;;;3.72;;
23496;SDS011;11925;48.122;11.560;2023-07-31T05:57:29;5.68;;;2.88;;
23496;SDS011;11925;48.122;11.560;2023-07-31T05:59:57;6.03;;;2.60;;
23496;SDS011;11925;48.122;11.560;2023-07-31T06:02:27;6.43;;;2.53;;
23496;SDS011;11925;48.122;11.560;2023-07-31T06:04:59;3.92;;;2.30;;
23496;SDS011;11925;48.122;11.560;2023-07-31T06:07:28;3.35;;;2.03;;
23496;SDS011;11925;48.122;11.560;2023-07-31T06:09:57;3.45;;;2.00;;
23496;SDS011;11925;48.122;11.560;2023-07-31T06:12:31;2.72;;;1.90;;
23496;SDS011;11925;48.122;11.560;2023-07-31T06:15:00;2.58;;;2.03;;
23496;SDS011;11925;48.122;11.560;2023-07-31T06:17:31;3.67;;;1.95;;
23496;SDS011;11925;48.122;11.560;2023-07-31T06:20:00;4.28;;;1.90;;
23496;SDS011;11925;48.122;11.560;2023-07-31T06:22:31;5.03;;;2.20;;
23496;SDS011;11925;48.122;11.560;2023-07-31T06:25:00;3.90;;;1.90;;
23496;SDS011;11925;48.122;11.560;2023-07-31T06:27:29;5.50;;;2.35;;
23496;SDS011;11925;48.122;11.560;2023-07-31T06:30:01;7.88;;;2.22;;
23496;SDS011;11925;48.122;11.560;2023-07-31T06:32:31;4.90;;;1.80;;
23496;SDS011;11925;48.122;11.560;2023-07-31T06:35:00;2.80;;;1.70;;
23496;SDS011;11925;48.122;11.560;2023-07-31T06:37:28;4.15;;;1.73;;
23496;SDS011;11925;48.122;11.560;2023-07-31T06:39:57;3.17;;;1.98;;
23496;SDS011;11925;48.122;11.560;2023-07-31T06:42:25;6.78;;;3.70;;
23496;SDS011;11925;48.122;11.560;2023-07-31T06:44:54;4.78;;;2.55;;
23496;SDS011;11925;48.122;11.560;2023-07-31T06:47:23;5.70;;;2.30;;
23496;SDS011;11925;48.122;11.560;2023-07-31T06:49:52;5.05;;;2.20;;
23496;SDS011;11925;48.122;11.560;2023-07-31T06:52:21;4.18;;;1.90;;
23496;SDS011;11925;48.122;11.560;2023-07-31T06:55:00;6.15;;;1.83;;
23496;SDS011;11925;48.122;11.560;2023-07-31T06:57:31;2.53;;;1.63;;
23496;SDS011;11925;48.122;11.560;2023-07-31T06:59:59;2.95;;;1.80;;
23496;SDS011;11925;48.122;11.560;2023-07-31T07:02:27;4.55;;;1.67;;
23496;SDS011;11925;48.122;11.560;2023-07-31T07:04:58;4.95;;;1.90;;
23496;SDS011;11925;48.122;11.560;2023-07-31T07:07:27;3.63;;;2.00;;
23496;SDS011;11925;48.122;11.560;2023-07-31T07:09:55;3.38;;;1.65;;
23496;SDS011;11925;48.122;11.560;2023-07-31T07:12:26;5.70;;;1.77;;
23496;SDS011;11925;48.122;11.560;2023-07-31T07:14:56;2.88;;;1.70;;
23496;SDS011;11925;48.122;11.560;2023-07-31T07:17:25;4.57;;;1.77;;
23496;SDS011;11925;48.122;11.560;2023-07-31T07:19:54;2.95;;;1.50;;
23496;SDS011;11925;48.122;11.560;2023-07-31T07:22:23;4.43;;;1.88;;
23496;SDS011;11925;48.122;11.560;2023-07-31T07:24:52;5.72;;;1.73;;
23496;SDS011;11925;48.122;11.560;2023-07-31T07:27:21;7.70;;;2.00;;
23496;SDS011;11925;48.122;11.560;2023-07-31T07:29:49;4.60;;;1.90;;
23496;SDS011;11925;48.122;11.560;2023-07-31T07:32:19;4.70;;;1.88;;
23496;SDS011;11925;48.122;11.560;2023-07-31T07:34:48;4.68;;;2.00;;
23496;SDS011;11925;48.122;11.560;2023-07-31T07:37:17;4.07;;;1.95;;
23496;SDS011;11925;48.122;11.560;2023-07-31T07:39:47;5.60;;;1.90;;
23496;SDS011;11925;48.122;11.560;2023-07-31T07:42:15;7.13;;;1.60;;
23496;SDS011;11925;48.122;11.560;2023-07-31T07:44:43;3.85;;;1.90;;
23496;SDS011;11925;48.122;11.560;2023-07-31T07:47:12;3.15;;;2.00;;
23496;SDS011;11925;48.122;11.560;2023-07-31T07:49:40;4.18;;;1.83;;
23496;SDS011;11925;48.122;11.560;2023-07-31T07:52:16;2.67;;;1.60;;
23496;SDS011;11925;48.122;11.560;2023-07-31T07:54:44;5.93;;;2.20;;
23496;SDS011;11925;48.122;11.560;2023-07-31T07:57:14;2.58;;;1.77;;
23496;SDS011;11925;48.122;11.560;2023-07-31T07:59:42;4.88;;;1.85;;
23496;SDS011;11925;48.122;11.560;2023-07-31T08:02:11;4.38;;;1.88;;
23496;SDS011;11925;48.122;11.560;2023-07-31T08:04:39;5.25;;;2.03;;
23496;SDS011;11925;48.122;11.560;2023-07-31T08:07:08;3.60;;;1.55;;
23496;SDS011;11925;48.122;11.560;2023-07-31T08:09:38;2.80;;;1.60;;
23496;SDS011;11925;48.122;11.560;2023-07-31T08:12:09;4.55;;;1.90;;
23496;SDS011;11925;48.122;11.560;2023-07-31T08:14:37;4.70;;;1.65;;
23496;SDS011;11925;48.122;11.560;2023-07-31T08:17:06;3.20;;;1.52;;
23496;SDS011;11925;48.122;11.560;2023-07-31T08:19:34;3.03;;;1.80;;
23496;SDS011;11925;48.122;11.560;2023-07-31T08:22:03;3.78;;;1.73;;
23496;SDS011;11925;48.122;11.560;2023-07-31T08:24:31;3.65;;;1.80;;
23496;SDS011;11925;48.122;11.560;2023-07-31T08:27:00;3.05;;;1.70;;
23496;SDS011;11925;48.122;11.560;2023-07-31T08:29:30;4.32;;;2.00;;
23496;SDS011;11925;48.122;11.560;2023-07-31T08:31:58;3.78;;;1.65;;
23496;SDS011;11925;48.122;11.560;2023-07-31T08:34:26;5.15;;;1.92;;
23496;SDS011;11925;48.122;11.560;2023-07-31T08:36:55;4.20;;;1.80;;
23496;SDS011;11925;48.122;11.560;2023-07-31T08:39:23;3.50;;;2.13;;
23496;SDS011;11925;48.122;11.560;2023-07-31T08:41:51;5.05;;;1.65;;
23496;SDS011;11925;48.122;11.560;2023-07-31T08:44:26;4.18;;;1.80;;
23496;SDS011;11925;48.122;11.560;2023-07-31T08:46:56;4.15;;;1.88;;
23496;SDS011;11925;48.122;11.560;2023-07-31T08:49:24;3.65;;;2.22;;
23496;SDS011;11925;48.122;11.560;2023-07-31T08:51:54;3.22;;;1.85;;
23496;SDS011;11925;48.122;11.560;2023-07-31T08:54:24;5.20;;;1.90;;
23496;SDS011;11925;48.122;11.560;2023-07-31T08:56:57;6.82;;;2.15;;
23496;SDS011;11925;48.122;11.560;2023-07-31T08:59:26;4.30;;;1.92;;
23496;SDS011;11925;48.122;11.560;2023-07-31T09:04:31;4.18;;;1.90;;
23496;SDS011;11925;48.122;11.560;2023-07-31T09:07:00;5.15;;;2.00;;
23496;SDS011;11925;48.122;11.560;2023-07-31T09:09:31;4.40;;;1.87;;
23496;SDS011;11925;48.122;11.560;2023-07-31T09:11:59;5.22;;;1.90;;
23496;SDS011;11925;48.122;11.560;2023-07-31T09:14:27;4.72;;;2.10;;
23496;SDS011;11925;48.122;11.560;2023-07-31T09:16:56;4.18;;;1.92;;
23496;SDS011;11925;48.122;11.560;2023-07-31T09:19:29;4.15;;;1.80;;
23496;SDS011;11925;48.122;11.560;2023-07-31T09:22:00;4.20;;;1.73;;
23496;SDS011;11925;48.122;11.560;2023-07-31T09:24:30;5.85;;;1.98;;
23496;SDS011;11925;48.122;11.560;2023-07-31T09:27:00;5.13;;;1.80;;
23496;SDS011;11925;48.122;11.560;2023-07-31T09:29:29;3.08;;;1.60;;
23496;SDS011;11925;48.122;11.560;2023-07-31T09:31:58;2.75;;;1.50;;
23496;SDS011;11925;48.122;11.560;2023-07-31T09:34:37;4.68;;;2.10;;
23496;SDS011;11925;48.122;11.560;2023-07-31T09:37:06;4.68;;;1.83;;
23496;SDS011;11925;48.122;11.560;2023-07-31T09:39:44;3.80;;;1.60;;
23496;SDS011;11925;48.122;11.560;2023-07-31T09:42:14;4.47;;;1.80;;
23496;SDS011;11925;48.122;11.560;2023-07-31T09:44:52;2.92;;;1.80;;
23496;SDS011;11925;48.122;11.560;2023-07-31T09:47:23;4.40;;;1.88;;
23496;SDS011;11925;48.122;11.560;2023-07-31T09:49:54;5.40;;;1.77;;
23496;SDS011;11925;48.122;11.560;2023-07-31T09:52:23;5.05;;;2.50;;
23496;SDS011;11925;48.122;11.560;2023-07-31T09:57:22;4.63;;;2.35;;
23496;SDS011;11925;48.122;11.560;2023-07-31T09:59:52;3.40;;;1.70;;
23496;SDS011;11925;48.122;11.560;2023-07-31T10:02:22;3.85;;;1.90;;
23496;SDS011;11925;48.122;11.560;2023-07-31T10:04:50;6.32;;;2.13;;
23496;SDS011;11925;48.122;11.560;2023-07-31T10:07:22;3.80;;;2.15;;
23496;SDS011;11925;48.122;11.560;2023-07-31T10:09:53;3.88;;;1.83;;
23496;SDS011;11925;48.122;11.560;2023-07-31T10:12:22;3.97;;;2.10;;
23496;SDS011;11925;48.122;11.560;2023-07-31T10:14:54;3.45;;;1.90;;
23496;SDS011;11925;48.122;11.560;2023-07-31T10:17:24;4.57;;;2.20;;
23496;SDS011;11925;48.122;11.560;2023-07-31T10:19:53;5.28;;;2.60;;
23496;SDS011;11925;48.122;11.560;2023-07-31T10:22:23;5.97;;;1.95;;
23496;SDS011;11925;48.122;11.560;2023-07-31T10:24:52;2.60;;;1.85;;
23496;SDS011;11925;48.122;11.560;2023-07-31T10:27:22;3.53;;;1.63;;
23496;SDS011;11925;48.122;11.560;2023-07-31T10:29:51;3.05;;;1.75;;
23496;SDS011;11925;48.122;11.560;2023-07-31T10:32:22;3.58;;;1.80;;
23496;SDS011;11925;48.122;11.560;2023-07-31T10:34:52;4.18;;;1.67;;
23496;SDS011;11925;48.122;11.560;2023-07-31T10:37:23;4.32;;;2.00;;
23496;SDS011;11925;48.122;11.560;2023-07-31T10:39:56;6.57;;;4.75;;
23496;SDS011;11925;48.122;11.560;2023-07-31T10:42:29;7.57;;;5.13;;
23496;SDS011;11925;48.122;11.560;2023-07-31T10:44:59;5.43;;;3.58;;
23496;SDS011;11925;48.122;11.560;2023-07-31T10:47:28;6.20;;;3.28;;
23496;SDS011;11925;48.122;11.560;2023-07-31T10:50:16;7.20;;;3.70;;
23496;SDS011;11925;48.122;11.560;2023-07-31T10:52:48;6.22;;;3.00;;
23496;SDS011;11925;48.122;11.560;2023-07-31T10:55:24;3.85;;;2.40;;
23496;SDS011;11925;48.122;11.560;2023-07-31T10:57:55;5.35;;;2.00;;
23496;SDS011;11925;48.122;11.560;2023-07-31T11:00:25;5.13;;;1.90;;
23496;SDS011;11925;48.122;11.560;2023-07-31T11:02:59;4.78;;;2.00;;
23496;SDS011;11925;48.122;11.560;2023-07-31T11:05:42;4.97;;;2.20;;
23496;SDS011;11925;48.122;11.560;2023-07-31T11:08:17;2.30;;;1.65;;
23496;SDS011;11925;48.122;11.560;2023-07-31T11:10:47;4.97;;;1.98;;
23496;SDS011;11925;48.122;11.560;2023-07-31T11:13:17;3.80;;;1.90;;
23496;SDS011;11925;48.122;11.560;2023-07-31T11:15:45;4.03;;;1.70;;
23496;SDS011;11925;48.122;11.560;2023-07-31T11:18:14;3.78;;;1.73;;
23496;SDS011;11925;48.122;11.560;2023-07-31T11:20:43;2.80;;;1.60;;
23496;SDS011;11925;48.122;11.560;2023-07-31T11:23:12;3.65;;;1.50;;
23496;SDS011;11925;48.122;11.560;2023-07-31T11:25:41;3.25;;;1.85;;
23496;SDS011;11925;48.122;11.560;2023-07-31T11:28:10;4.35;;;1.50;;
23496;SDS011;11925;48.122;11.560;2023-07-31T11:30:40;5.30;;;2.35;;
23496;SDS011;11925;48.122;11.560;2023-07-31T11:33:10;3.67;;;2.10;;
23496;SDS011;11925;48.122;11.560;2023-07-31T11:35:41;7.25;;;2.15;;
23496;SDS011;11925;48.122;11.560;2023-07-31T11:38:12;4.50;;;2.25;;
23496;SDS011;11925;48.122;11.560;2023-07-31T11:40:51;4.88;;;2.05;;
23496;SDS011;11925;48.122;11.560;2023-07-31T11:43:20;4.10;;;1.65;;
23496;SDS011;11925;48.122;11.560;2023-07-31T11:45:50;3.55;;;2.00;;
23496;SDS011;11925;48.122;11.560;2023-07-31T11:48:20;5.28;;;1.73;;
23496;SDS011;11925;48.122;11.560;2023-07-31T11:50:50;2.53;;;1.65;;
23496;SDS011;11925;48.122;11.560;2023-07-31T11:53:20;3.83;;;1.77;;
23496;SDS011;11925;48.122;11.560;2023-07-31T11:55:54;5.65;;;2.00;;
23496;SDS011;11925;48.122;11.560;2023-07-31T11:58:24;3.60;;;1.90;;
23496;SDS011;11925;48.122;11.560;2023-07-31T12:00:53;4.75;;;2.00;;
23496;SDS011;11925;48.122;11.560;2023-07-31T12:03:22;4.35;;;2.50;;
23496;SDS011;11925;48.122;11.560;2023-07-31T12:05:52;4.82;;;2.45;;
23496;SDS011;11925;48.122;11.560;2023-07-31T12:08:21;6.80;;;2.42;;
23496;SDS011;11925;48.122;11.560;2023-07-31T12:10:51;4.18;;;2.25;;
23496;SDS011;11925;48.122;11.560;2023-07-31T12:13:23;4.63;;;1.95;;
23496;SDS011;11925;48.122;11.560;2023-07-31T12:15:53;2.90;;;1.87;;
23496;SDS011;11925;48.122;11.560;2023-07-31T12:18:24;3.35;;;2.00;;
23496;SDS011;11925;48.122;11.560;2023-07-31T12:20:54;3.08;;;1.83;;
23496;SDS011;11925;48.122;11.560;2023-07-31T12:23:24;3.38;;;2.10;;
23496;SDS011;11925;48.122;11.560;2023-07-31T12:26:03;3.03;;;1.83;;
23496;SDS011;11925;48.122;11.560;2023-07-31T12:28:34;4.78;;;1.70;;
23496;SDS011;11925;48.122;11.560;2023-07-31T12:31:05;3.85;;;1.90;;
23496;SDS011;11925;48.122;11.560;2023-07-31T12:33:34;4.05;;;1.90;;
23496;SDS011;11925;48.122;11.560;2023-07-31T12:36:06;3.88;;;1.80;;
23496;SDS011;11925;48.122;11.560;2023-07-31T12:38:36;6.03;;;1.92;;
23496;SDS011;11925;48.122;11.560;2023-07-31T12:41:06;2.38;;;1.52;;
23496;SDS011;11925;48.122;11.560;2023-07-31T12:43:35;6.70;;;1.95;;
23496;SDS011;11925;48.122;11.560;2023-07-31T12:46:03;3.08;;;1.67;;
23496;SDS011;11925;48.122;11.560;2023-07-31T12:48:34;3.27;;;1.67;;
23496;SDS011;11925;48.122;11.560;2023-07-31T12:51:03;5.22;;;2.22;;
23496;SDS011;11925;48.122;11.560;2023-07-31T12:53:33;5.40;;;1.95;;
23496;SDS011;11925;48.122;11.560;2023-07-31T12:56:01;3.50;;;1.67;;
23496;SDS011;11925;48.122;11.560;2023-07-31T12:58:44;2.90;;;1.90;;
23496;SDS011;11925;48.122;11.560;2023-07-31T13:01:13;3.90;;;1.80;;
23496;SDS011;11925;48.122;11.560;2023-07-31T13:03:43;4.60;;;2.10;;
23496;SDS011;11925;48.122;11.560;2023-07-31T13:06:11;3.28;;;1.65;;
23496;SDS011;11925;48.122;11.560;2023-07-31T13:08:40;4.47;;;1.80;;
23496;SDS011;11925;48.122;11.560;2023-07-31T13:11:08;3.90;;;1.73;;
23496;SDS011;11925;48.122;11.560;2023-07-31T13:13:36;4.47;;;1.70;;
23496;SDS011;11925;48.122;11.560;2023-07-31T13:16:06;3.85;;;1.77;;
23496;SDS011;11925;48.122;11.560;2023-07-31T13:18:35;2.97;;;1.80;;
23496;SDS011;11925;48.122;11.560;2023-07-31T13:21:03;4.22;;;2.20;;
23496;SDS011;11925;48.122;11.560;2023-07-31T13:23:31;4.28;;;1.50;;
23496;SDS011;11925;48.122;11.560;2023-07-31T13:26:00;2.58;;;1.50;;
23496;SDS011;11925;48.122;11.560;2023-07-31T13:28:28;3.97;;;1.85;;
23496;SDS011;11925;48.122;11.560;2023-07-31T13:30:56;3.40;;;1.88;;
23496;SDS011;11925;48.122;11.560;2023-07-31T13:33:26;4.05;;;1.63;;
23496;SDS011;11925;48.122;11.560;2023-07-31T13:36:03;3.33;;;1.80;;
23496;SDS011;11925;48.122;11.560;2023-07-31T13:38:33;4.65;;;1.98;;
23496;SDS011;11925;48.122;11.560;2023-07-31T13:41:01;1.95;;;1.27;;
23496;SDS011;11925;48.122;11.560;2023-07-31T13:43:30;4.38;;;1.85;;
23496;SDS011;11925;48.122;11.560;2023-07-31T13:45:58;4.32;;;1.80;;
23496;SDS011;11925;48.122;11.560;2023-07-31T13:48:34;4.53;;;1.80;;
23496;SDS011;11925;48.122;11.560;2023-07-31T13:51:03;2.75;;;1.63;;
23496;SDS011;11925;48.122;11.560;2023-07-31T13:53:32;2.88;;;1.80;;
23496;SDS011;11925;48.122;11.560;2023-07-31T13:56:00;3.33;;;1.48;;
23496;SDS011;11925;48.122;11.560;2023-07-31T13:58:29;3.53;;;1.75;;
23496;SDS011;11925;48.122;11.560;2023-07-31T14:00:57;2.38;;;1.63;;
23496;SDS011;11925;48.122;11.560;2023-07-31T14:03:26;2.75;;;1.45;;
23496;SDS011;11925;48.122;11.560;2023-07-31T14:05:56;2.92;;;1.40;;
23496;SDS011;11925;48.122;11.560;2023-07-31T14:08:24;2.22;;;1.38;;
23496;SDS011;11925;48.122;11.560;2023-07-31T14:10:52;3.90;;;1.85;;
23496;SDS011;11925;48.122;11.560;2023-07-31T14:13:21;2.05;;;1.60;;
23496;SDS011;11925;48.122;11.560;2023-07-31T14:15:49;2.55;;;1.50;;
23496;SDS011;11925;48.122;11.560;2023-07-31T14:18:17;3.35;;;1.80;;
23496;SDS011;11925;48.122;11.560;2023-07-31T14:20:46;3.85;;;1.65;;
23496;SDS011;11925;48.122;11.560;2023-07-31T14:23:16;3.38;;;1.50;;
23496;SDS011;11925;48.122;11.560;2023-07-31T14:25:46;3.00;;;1.75;;
23496;SDS011;11925;48.122;11.560;2023-07-31T14:28:14;4.90;;;2.40;;
23496;SDS011;11925;48.122;11.560;2023-07-31T14:30:42;5.55;;;2.30;;
23496;SDS011;11925;48.122;11.560;2023-07-31T14:33:11;5.90;;;2.25;;
23496;SDS011;11925;48.122;11.560;2023-07-31T14:35:40;5.57;;;2.38;;
23496;SDS011;11925;48.122;11.560;2023-07-31T14:38:08;5.07;;;2.55;;
23496;SDS011;11925;48.122;11.560;2023-07-31T14:40:38;4.95;;;2.30;;
23496;SDS011;11925;48.122;11.560;2023-07-31T14:43:06;3.22;;;1.70;;
23496;SDS011;11925;48.122;11.560;2023-07-31T14:45:35;3.13;;;1.83;;
23496;SDS011;11925;48.122;11.560;2023-07-31T14:48:03;5.00;;;1.98;;
23496;SDS011;11925;48.122;11.560;2023-07-31T14:50:32;5.30;;;2.22;;
23496;SDS011;11925;48.122;11.560;2023-07-31T14:53:00;3.70;;;2.05;;